Time;durP1;ratioP1;P1;durP2;ratioP2;P2;SDS_P1;SDS_P2;PMS_P1;PMS_P2;Temp;Humidity;BMP_temperature;BMP_pressure;BME280_temperature;BME280_humidity;BME280_pressure;Samples;Min_cycle;Max_cycle;Signal;HPM_P1;HPM_P2
2022/03/15 00:01:06;;;;;;;13.90;12.47;;;9.40;99.90;;;;;;5050904;28;20471;-66
2022/03/15 00:03:32;;;;;;;10.20;9.00;;;9.30;99.90;;;;;;5051559;28;20625;-66
2022/03/15 00:05:59;;;;;;;10.80;9.80;;;9.30;99.90;;;;;;5051418;28;20201;-66
2022/03/15 00:08:26;;;;;;;15.70;11.33;;;9.30;99.90;;;;;;5050766;28;20420;-66
2022/03/15 00:10:57;;;;;;;11.47;9.17;;;9.30;99.90;;;;;;5050347;28;20424;-71
2022/03/15 00:13:26;;;;;;;10.20;9.30;;;9.30;99.90;;;;;;5051989;28;20397;-66
2022/03/15 00:15:52;;;;;;;11.23;9.90;;;9.30;99.90;;;;;;5050520;28;20424;-70
2022/03/15 00:18:20;;;;;;;14.23;11.57;;;9.30;99.90;;;;;;5051292;28;20921;-66
2022/03/15 00:20:47;;;;;;;11.73;10.53;;;9.30;99.90;;;;;;5050316;28;20480;-66
2022/03/15 00:23:12;;;;;;;12.53;10.40;;;9.30;99.90;;;;;;5050753;28;20531;-66
2022/03/15 00:25:39;;;;;;;12.00;10.80;;;9.30;99.90;;;;;;5050074;28;20570;-66
2022/03/15 00:28:04;;;;;;;11.47;9.90;;;9.30;99.90;;;;;;5051268;28;20227;-66
2022/03/15 00:30:30;;;;;;;11.23;9.33;;;9.20;99.90;;;;;;5051781;28;20514;-66
2022/03/15 00:32:56;;;;;;;10.57;9.50;;;9.20;99.90;;;;;;5049521;28;20180;-66
2022/03/15 00:35:25;;;;;;;12.23;10.20;;;9.20;99.90;;;;;;5051788;28;20177;-66
2022/03/15 00:37:55;;;;;;;14.03;9.77;;;9.20;99.90;;;;;;5051191;28;20174;-71
2022/03/15 00:40:22;;;;;;;11.23;9.87;;;9.20;99.90;;;;;;5051301;28;20863;-66
2022/03/15 00:42:51;;;;;;;12.33;10.37;;;9.20;99.90;;;;;;5054477;28;20431;-66
2022/03/15 00:45:17;;;;;;;12.73;11.47;;;9.20;99.90;;;;;;5055064;28;20935;-66
2022/03/15 00:47:44;;;;;;;12.33;9.67;;;9.20;99.90;;;;;;5055523;28;20438;-66
2022/03/15 00:50:10;;;;;;;10.80;9.70;;;9.20;99.90;;;;;;5053545;28;20436;-66
2022/03/15 00:52:36;;;;;;;12.23;9.30;;;9.30;99.90;;;;;;5054189;28;20435;-66
2022/03/15 00:55:05;;;;;;;12.27;9.80;;;9.20;99.90;;;;;;5054311;28;20416;-66
2022/03/15 00:57:31;;;;;;;10.50;9.50;;;9.10;99.90;;;;;;5054519;28;20497;-66
2022/03/15 00:59:57;;;;;;;11.87;9.93;;;9.10;99.90;;;;;;5052790;28;20867;-66
2022/03/15 01:02:23;;;;;;;10.33;9.17;;;9.10;99.90;;;;;;5055531;28;20454;-66
2022/03/15 01:04:49;;;;;;;10.53;9.03;;;9.10;99.90;;;;;;5055271;28;20184;-66
2022/03/15 01:07:15;;;;;;;11.73;10.40;;;9.00;99.90;;;;;;5053035;28;20416;-66
2022/03/15 01:09:41;;;;;;;10.37;9.27;;;9.00;99.90;;;;;;5055009;28;20428;-66
2022/03/15 01:12:08;;;;;;;12.13;10.83;;;9.00;99.90;;;;;;5054929;28;20447;-66
2022/03/15 01:14:35;;;;;;;11.17;10.07;;;9.00;99.90;;;;;;5054672;28;20174;-66
2022/03/15 01:17:02;;;;;;;11.63;9.47;;;9.00;99.90;;;;;;5054096;28;20424;-66
2022/03/15 01:19:28;;;;;;;12.30;9.70;;;9.00;99.90;;;;;;5054571;28;20425;-66
2022/03/15 01:21:54;;;;;;;10.63;9.47;;;9.00;99.90;;;;;;5054627;28;20471;-71
2022/03/15 01:24:20;;;;;;;10.47;9.33;;;9.00;99.90;;;;;;5054723;28;20506;-66
2022/03/15 01:26:46;;;;;;;12.40;11.20;;;8.90;99.90;;;;;;5037186;28;20935;-66
2022/03/15 01:29:12;;;;;;;10.20;9.10;;;9.00;99.90;;;;;;5053598;28;20477;-66
2022/03/15 01:31:38;;;;;;;14.70;9.10;;;8.90;99.90;;;;;;5054345;28;20531;-66
2022/03/15 01:34:04;;;;;;;13.60;11.10;;;9.00;99.90;;;;;;5053497;28;20178;-66
2022/03/15 01:36:30;;;;;;;10.13;9.13;;;9.00;99.90;;;;;;5054679;28;20198;-66
2022/03/15 01:38:56;;;;;;;12.10;8.90;;;9.00;99.90;;;;;;5053996;28;20435;-71
2022/03/15 01:41:22;;;;;;;11.57;8.53;;;9.00;99.90;;;;;;5054316;28;20455;-66
2022/03/15 01:43:48;;;;;;;12.77;9.20;;;8.90;99.90;;;;;;5054589;28;20415;-66
2022/03/15 01:46:14;;;;;;;13.80;12.50;;;8.90;99.90;;;;;;5053502;28;20238;-66
2022/03/15 01:48:40;;;;;;;11.50;10.20;;;8.90;99.90;;;;;;5054672;28;20424;-66
2022/03/15 01:51:07;;;;;;;11.90;8.50;;;8.90;99.90;;;;;;5053515;28;20842;-66
2022/03/15 01:53:34;;;;;;;12.10;9.00;;;8.90;99.90;;;;;;5052950;28;20845;-66
2022/03/15 01:56:00;;;;;;;13.07;9.70;;;8.80;99.90;;;;;;5053868;28;20481;-66
2022/03/15 01:58:27;;;;;;;10.50;8.73;;;8.80;99.90;;;;;;5052913;28;20424;-66
2022/03/15 02:00:53;;;;;;;12.10;9.97;;;8.80;99.90;;;;;;5054160;28;20475;-68
2022/03/15 02:03:19;;;;;;;12.00;9.77;;;8.80;99.90;;;;;;5033807;28;20496;-66
2022/03/15 02:05:45;;;;;;;11.00;9.50;;;8.80;99.90;;;;;;5034489;28;20170;-66
2022/03/15 02:08:16;;;;;;;13.47;9.87;;;8.70;99.90;;;;;;5037162;28;20504;-66
2022/03/15 02:10:42;;;;;;;11.53;10.33;;;8.70;99.90;;;;;;5054472;28;20412;-66
2022/03/15 02:13:09;;;;;;;13.77;11.13;;;8.70;99.90;;;;;;5052861;28;20519;-66
2022/03/15 02:15:35;;;;;;;16.23;11.10;;;8.70;99.90;;;;;;5053290;28;20989;-66
2022/03/15 02:18:01;;;;;;;11.83;10.50;;;8.70;99.90;;;;;;5052944;28;20420;-67
2022/03/15 02:20:27;;;;;;;11.27;9.17;;;8.70;99.90;;;;;;5053498;28;20998;-66
2022/03/15 02:22:53;;;;;;;11.93;10.63;;;8.70;99.90;;;;;;5052200;28;20174;-67
2022/03/15 02:25:19;;;;;;;12.83;9.60;;;8.60;99.90;;;;;;5053311;28;20404;-66
2022/03/15 02:27:45;;;;;;;14.20;10.80;;;8.70;99.90;;;;;;5053839;28;20502;-66
2022/03/15 02:30:11;;;;;;;11.10;9.97;;;8.60;99.90;;;;;;5051330;28;20178;-66
2022/03/15 02:32:38;;;;;;;14.20;12.30;;;8.60;99.90;;;;;;5053925;28;20178;-66
2022/03/15 02:35:05;;;;;;;10.53;9.20;;;8.70;99.90;;;;;;5052164;28;20749;-66
2022/03/15 02:37:31;;;;;;;16.30;10.30;;;8.60;99.90;;;;;;5053825;28;20447;-66
2022/03/15 02:39:57;;;;;;;15.03;11.30;;;8.60;99.90;;;;;;5053520;28;20504;-71
2022/03/15 02:42:23;;;;;;;15.33;13.33;;;8.60;99.90;;;;;;5052674;28;20448;-66
2022/03/15 02:44:49;;;;;;;13.63;12.33;;;8.60;99.90;;;;;;5053370;28;20173;-66
2022/03/15 02:47:14;;;;;;;16.17;10.70;;;8.60;99.90;;;;;;5051414;28;20642;-66
2022/03/15 02:49:40;;;;;;;14.60;10.07;;;8.60;99.90;;;;;;5053299;28;20614;-66
2022/03/15 02:52:06;;;;;;;12.43;10.53;;;8.60;99.90;;;;;;5052410;28;20177;-66
2022/03/15 02:54:32;;;;;;;13.60;12.20;;;8.60;99.90;;;;;;5053826;28;20174;-66
2022/03/15 02:56:58;;;;;;;12.93;11.60;;;8.70;99.90;;;;;;5053231;28;20502;-70
2022/03/15 02:59:23;;;;;;;12.43;9.63;;;8.70;99.90;;;;;;5052250;28;20178;-66
2022/03/15 03:01:50;;;;;;;13.00;9.27;;;8.70;99.90;;;;;;5052995;28;20685;-66
2022/03/15 03:04:16;;;;;;;13.90;11.33;;;8.60;99.90;;;;;;5050456;28;20657;-66
2022/03/15 03:06:43;;;;;;;15.00;11.73;;;8.70;99.90;;;;;;5052640;28;20416;-66
2022/03/15 03:09:11;;;;;;;12.53;11.23;;;8.70;99.90;;;;;;5051915;28;20766;-66
2022/03/15 03:11:37;;;;;;;14.27;11.33;;;8.70;99.90;;;;;;5031299;28;20953;-66
2022/03/15 03:14:04;;;;;;;12.50;11.10;;;8.70;99.90;;;;;;5032722;28;20456;-71
2022/03/15 03:16:30;;;;;;;13.33;11.20;;;8.80;99.90;;;;;;5031868;28;20417;-66
2022/03/15 03:18:58;;;;;;;18.47;13.37;;;8.70;99.90;;;;;;5041813;28;20424;-66
2022/03/15 03:21:28;;;;;;;15.00;11.20;;;8.70;99.90;;;;;;5051107;28;20483;-66
2022/03/15 03:23:56;;;;;;;14.00;10.53;;;8.70;99.90;;;;;;5053052;28;20416;-66
2022/03/15 03:26:24;;;;;;;14.10;11.33;;;8.80;99.90;;;;;;5051504;28;20510;-66
2022/03/15 03:28:52;;;;;;;15.60;12.63;;;8.70;99.90;;;;;;5052527;28;20420;-66
2022/03/15 03:31:18;;;;;;;17.40;11.30;;;8.70;99.90;;;;;;5051556;28;20423;-67
2022/03/15 03:33:44;;;;;;;17.83;10.27;;;8.70;99.90;;;;;;5052333;28;20424;-66
2022/03/15 03:36:10;;;;;;;17.00;11.00;;;8.70;99.90;;;;;;5051501;28;20173;-66
2022/03/15 03:38:37;;;;;;;13.20;11.53;;;8.70;99.90;;;;;;5051988;28;20191;-66
2022/03/15 03:41:04;;;;;;;13.10;11.70;;;8.70;99.90;;;;;;5052089;28;20459;-70
2022/03/15 03:43:31;;;;;;;14.63;11.13;;;8.70;99.90;;;;;;5050972;28;20514;-65
2022/03/15 03:45:58;;;;;;;12.80;10.33;;;8.70;99.90;;;;;;5051756;28;20450;-65
2022/03/15 03:48:24;;;;;;;14.97;10.73;;;8.70;99.90;;;;;;5051751;28;20580;-67
2022/03/15 03:50:51;;;;;;;13.03;9.47;;;8.70;99.90;;;;;;5050671;28;20452;-67
2022/03/15 03:53:18;;;;;;;11.83;10.63;;;8.70;99.90;;;;;;5051028;28;20946;-67
2022/03/15 03:55:45;;;;;;;12.50;10.23;;;8.60;99.90;;;;;;5051604;28;20758;-68
2022/03/15 03:58:11;;;;;;;15.60;11.00;;;8.60;99.90;;;;;;5051134;28;20464;-66
2022/03/15 04:00:37;;;;;;;12.67;10.50;;;8.60;99.90;;;;;;5050408;28;20955;-66
2022/03/15 04:03:03;;;;;;;13.50;10.57;;;8.60;99.90;;;;;;5052070;28;20435;-72
2022/03/15 04:05:35;;;;;;;15.57;10.77;;;8.60;99.90;;;;;;5051173;28;20429;-67
2022/03/15 04:08:01;;;;;;;15.87;10.47;;;8.60;99.90;;;;;;5052688;28;20481;-66
2022/03/15 04:10:28;;;;;;;16.40;11.90;;;8.60;99.90;;;;;;5051400;28;20418;-66
2022/03/15 04:12:55;;;;;;;14.03;10.47;;;8.70;99.90;;;;;;5051931;28;20508;-66
2022/03/15 04:15:22;;;;;;;13.80;11.07;;;8.60;99.90;;;;;;5051156;28;20424;-66
2022/03/15 04:17:48;;;;;;;11.43;10.23;;;8.60;99.90;;;;;;5051504;28;20763;-68
2022/03/15 04:20:14;;;;;;;16.30;10.60;;;8.70;99.90;;;;;;5050521;28;20487;-67
2022/03/15 04:22:40;;;;;;;15.20;11.30;;;8.70;99.90;;;;;;5052424;28;20909;-67
2022/03/15 04:25:06;;;;;;;15.77;11.50;;;8.60;99.90;;;;;;5051209;28;20420;-73
2022/03/15 04:27:33;;;;;;;13.63;10.53;;;8.60;99.90;;;;;;5051748;28;20405;-67
2022/03/15 04:29:59;;;;;;;14.43;10.03;;;8.60;99.90;;;;;;5052112;28;20566;-66
2022/03/15 04:32:25;;;;;;;14.20;10.00;;;8.70;99.90;;;;;;5032800;28;20440;-67
2022/03/15 04:34:51;;;;;;;16.20;9.73;;;8.60;99.90;;;;;;5050475;28;20428;-66
2022/03/15 04:37:18;;;;;;;14.67;10.43;;;8.80;99.90;;;;;;5049723;28;20754;-67
2022/03/15 04:39:44;;;;;;;12.90;11.60;;;8.70;99.90;;;;;;5051421;28;20426;-66
2022/03/15 04:42:10;;;;;;;13.30;9.47;;;8.60;99.90;;;;;;5051186;28;20499;-67
2022/03/15 04:44:36;;;;;;;14.03;11.03;;;8.60;99.90;;;;;;5051081;28;20213;-67
2022/03/15 04:47:02;;;;;;;14.00;12.60;;;8.60;99.90;;;;;;5051791;28;20232;-66
2022/03/15 04:49:28;;;;;;;11.07;9.83;;;8.60;99.90;;;;;;5050979;28;20212;-66
2022/03/15 04:51:53;;;;;;;10.20;8.80;;;8.60;99.90;;;;;;5050777;28;20452;-67
2022/03/15 04:54:19;;;;;;;13.33;10.80;;;8.60;99.90;;;;;;5050422;28;20646;-67
2022/03/15 04:56:45;;;;;;;12.53;11.27;;;8.60;99.90;;;;;;5051403;28;20761;-66
2022/03/15 04:59:11;;;;;;;13.07;11.23;;;8.60;99.90;;;;;;5055139;28;20246;-67
2022/03/15 05:01:37;;;;;;;12.43;10.57;;;8.60;99.90;;;;;;5052110;28;20239;-67
2022/03/15 05:04:02;;;;;;;14.97;11.13;;;8.60;99.90;;;;;;5066207;28;20200;-65
2022/03/15 05:06:28;;;;;;;11.90;10.70;;;8.60;99.90;;;;;;5050408;28;20258;-66
2022/03/15 05:08:54;;;;;;;16.03;11.40;;;8.30;99.90;;;;;;5050434;28;20538;-66
2022/03/15 05:11:20;;;;;;;12.93;11.23;;;8.60;99.90;;;;;;5050370;28;20415;-66
2022/03/15 05:13:48;;;;;;;14.93;10.37;;;8.50;99.90;;;;;;5050852;28;20664;-65
2022/03/15 05:16:15;;;;;;;11.57;9.97;;;8.50;99.90;;;;;;5051065;28;20412;-66
2022/03/15 05:18:43;;;;;;;12.20;10.60;;;8.50;99.90;;;;;;5050946;28;20432;-66
2022/03/15 05:21:09;;;;;;;15.30;12.03;;;8.60;99.90;;;;;;5050095;28;20471;-71
2022/03/15 05:23:35;;;;;;;15.37;12.30;;;8.70;99.90;;;;;;5050930;28;20420;-66
2022/03/15 05:26:01;;;;;;;12.93;10.80;;;8.60;99.90;;;;;;5051523;28;20414;-66
2022/03/15 05:28:28;;;;;;;12.90;11.57;;;8.60;99.90;;;;;;5052270;28;21094;-66
2022/03/15 05:30:53;;;;;;;13.47;10.83;;;8.60;99.90;;;;;;5054753;28;20922;-66
2022/03/15 05:33:19;;;;;;;17.50;13.50;;;8.60;99.90;;;;;;5053994;28;20422;-66
2022/03/15 05:35:45;;;;;;;12.90;10.37;;;8.60;99.90;;;;;;5054462;28;20642;-65
2022/03/15 05:38:11;;;;;;;13.43;11.70;;;8.60;99.90;;;;;;5053712;28;20473;-68
2022/03/15 05:40:37;;;;;;;15.37;12.70;;;8.60;99.90;;;;;;5054851;28;20209;-64
2022/03/15 05:43:03;;;;;;;17.57;12.63;;;8.60;99.90;;;;;;5053262;28;20424;-64
2022/03/15 05:45:29;;;;;;;11.73;10.30;;;8.60;99.90;;;;;;5052961;28;20759;-64
2022/03/15 05:47:55;;;;;;;14.33;11.70;;;8.70;99.90;;;;;;5054659;28;20420;-64
2022/03/15 05:50:22;;;;;;;14.57;13.17;;;8.70;99.90;;;;;;5053975;28;20493;-64
2022/03/15 05:52:49;;;;;;;24.87;17.93;;;8.70;99.90;;;;;;5054734;28;20174;-64
2022/03/15 05:55:15;;;;;;;17.83;13.30;;;8.70;99.90;;;;;;5053181;28;20431;-64
2022/03/15 05:57:41;;;;;;;16.27;14.03;;;8.60;99.90;;;;;;5054125;28;20416;-64
2022/03/15 06:00:07;;;;;;;14.90;13.40;;;8.60;99.90;;;;;;5054509;28;20999;-64
2022/03/15 06:02:33;;;;;;;16.47;11.53;;;8.50;99.90;;;;;;5053491;28;20416;-64
2022/03/15 06:05:03;;;;;;;13.30;11.10;;;8.60;99.90;;;;;;5054074;28;20942;-65
2022/03/15 06:07:30;;;;;;;15.87;11.90;;;8.60;99.90;;;;;;5033943;28;20186;-64
2022/03/15 06:09:57;;;;;;;12.80;10.83;;;8.60;99.90;;;;;;5046247;28;20423;-64
2022/03/15 06:12:24;;;;;;;15.07;12.67;;;8.60;99.90;;;;;;5052467;28;20443;-64
2022/03/15 06:14:50;;;;;;;17.50;14.50;;;8.60;99.90;;;;;;5053956;28;20423;-64
2022/03/15 06:17:16;;;;;;;12.93;11.53;;;8.60;99.90;;;;;;5052819;28;20424;-64
2022/03/15 06:19:42;;;;;;;15.93;14.23;;;8.50;99.90;;;;;;5053733;28;20304;-64
2022/03/15 06:22:08;;;;;;;16.13;12.37;;;8.60;99.90;;;;;;5052866;28;20527;-64
2022/03/15 06:24:34;;;;;;;14.53;10.60;;;8.60;99.90;;;;;;5053297;28;21018;-64
2022/03/15 06:27:00;;;;;;;16.60;12.87;;;8.60;99.90;;;;;;5053252;28;20178;-64
2022/03/15 06:29:26;;;;;;;14.23;12.43;;;8.60;99.90;;;;;;5051790;28;20774;-64
2022/03/15 06:31:53;;;;;;;12.40;10.87;;;8.60;99.90;;;;;;5053342;28;20420;-64
2022/03/15 06:34:20;;;;;;;14.63;11.27;;;8.70;99.90;;;;;;5052793;28;20495;-64
2022/03/15 06:36:46;;;;;;;14.87;11.30;;;8.70;99.90;;;;;;5053798;28;20465;-64
2022/03/15 06:39:12;;;;;;;17.73;14.60;;;8.60;99.90;;;;;;5053230;28;20414;-68
2022/03/15 06:41:39;;;;;;;14.43;11.53;;;8.60;99.90;;;;;;5051817;28;20542;-64
2022/03/15 06:44:09;;;;;;;17.93;11.67;;;8.70;99.90;;;;;;5053622;28;20177;-64
2022/03/15 06:46:35;;;;;;;14.27;11.60;;;8.70;99.90;;;;;;5051884;28;20400;-64
2022/03/15 06:49:01;;;;;;;15.37;13.87;;;8.70;99.90;;;;;;5051459;28;20465;-64
2022/03/15 06:51:27;;;;;;;13.00;10.83;;;8.70;99.90;;;;;;5052012;28;20795;-64
2022/03/15 06:53:53;;;;;;;17.30;12.10;;;8.80;99.90;;;;;;5053342;28;20265;-64
2022/03/15 06:56:20;;;;;;;15.30;12.90;;;8.80;99.90;;;;;;5052875;28;20400;-64
2022/03/15 06:58:46;;;;;;;15.20;12.50;;;8.80;99.90;;;;;;5053221;28;20420;-64
2022/03/15 07:01:12;;;;;;;16.03;11.30;;;8.90;99.90;;;;;;5054071;28;20459;-64
2022/03/15 07:03:38;;;;;;;18.00;11.27;;;8.90;99.90;;;;;;5051156;28;20420;-65
2022/03/15 07:06:04;;;;;;;16.23;11.77;;;8.90;99.90;;;;;;5051837;28;20473;-66
2022/03/15 07:08:32;;;;;;;14.20;12.80;;;8.90;99.90;;;;;;5049996;28;20182;-66
2022/03/15 07:10:58;;;;;;;14.83;12.07;;;8.90;99.90;;;;;;5051245;28;20193;-65
2022/03/15 07:13:24;;;;;;;15.33;11.93;;;9.00;99.90;;;;;;5052455;28;20904;-65
2022/03/15 07:15:49;;;;;;;15.70;12.10;;;9.00;99.90;;;;;;5054943;28;20178;-65
2022/03/15 07:18:21;;;;;;;12.47;11.10;;;9.10;99.90;;;;;;5057845;28;20183;-69
2022/03/15 07:20:47;;;;;;;17.20;15.00;;;9.10;99.90;;;;;;5052759;28;20674;-65
2022/03/15 07:23:13;;;;;;;17.63;13.00;;;9.20;99.90;;;;;;5053400;28;20418;-65
2022/03/15 07:25:39;;;;;;;14.93;12.27;;;9.20;99.90;;;;;;5053235;28;20184;-66
2022/03/15 07:28:05;;;;;;;16.00;11.70;;;9.20;99.90;;;;;;5073422;28;20415;-66
2022/03/15 07:30:30;;;;;;;15.33;12.37;;;9.20;99.90;;;;;;5072406;28;20185;-66
2022/03/15 07:32:59;;;;;;;15.97;13.07;;;9.10;99.90;;;;;;5073159;28;20647;-65
2022/03/15 07:35:25;;;;;;;22.23;13.97;;;9.10;99.90;;;;;;5067054;28;20205;-66
2022/03/15 07:37:55;;;;;;;21.30;13.80;;;9.00;99.90;;;;;;5052605;28;20412;-65
2022/03/15 07:40:21;;;;;;;18.07;14.17;;;9.10;99.90;;;;;;5052433;28;20542;-66
2022/03/15 07:42:49;;;;;;;16.77;12.20;;;9.00;99.90;;;;;;5052925;28;20423;-67
2022/03/15 07:45:15;;;;;;;18.73;12.60;;;9.10;99.90;;;;;;5052447;28;20455;-70
2022/03/15 07:47:41;;;;;;;21.33;14.30;;;9.10;99.90;;;;;;5052675;28;20404;-66
2022/03/15 07:50:07;;;;;;;16.00;12.30;;;9.20;99.90;;;;;;5051918;28;20978;-66
2022/03/15 07:52:33;;;;;;;20.20;13.20;;;9.20;99.90;;;;;;5051913;28;20422;-66
2022/03/15 07:54:59;;;;;;;14.30;12.50;;;9.30;99.90;;;;;;5052052;28;20448;-66
2022/03/15 07:57:25;;;;;;;19.53;12.87;;;9.40;99.90;;;;;;5051517;28;20185;-65
2022/03/15 07:59:51;;;;;;;15.87;12.77;;;9.50;99.90;;;;;;5052227;28;20166;-65
2022/03/15 08:02:17;;;;;;;14.10;11.60;;;9.50;99.90;;;;;;5052201;28;20747;-65
2022/03/15 08:04:43;;;;;;;13.10;10.50;;;9.60;99.90;;;;;;5050889;28;20566;-65
2022/03/15 08:07:09;;;;;;;17.30;12.20;;;9.60;99.90;;;;;;5050763;28;20456;-65
2022/03/15 08:09:37;;;;;;;17.53;12.97;;;9.60;99.90;;;;;;5051455;28;20458;-65
2022/03/15 08:12:03;;;;;;;15.70;10.93;;;9.70;99.90;;;;;;5050225;28;20424;-64
2022/03/15 08:14:29;;;;;;;17.30;11.20;;;9.70;99.90;;;;;;5051142;28;20885;-65
2022/03/15 08:16:55;;;;;;;15.57;12.77;;;9.70;99.90;;;;;;5050550;28;20428;-66
2022/03/15 08:19:21;;;;;;;14.23;11.37;;;9.80;99.90;;;;;;5051405;28;20181;-66
2022/03/15 08:21:46;;;;;;;14.10;10.67;;;9.80;99.90;;;;;;5052280;28;20285;-66
2022/03/15 08:24:14;;;;;;;18.20;12.20;;;9.80;99.90;;;;;;5051445;28;20181;-66
2022/03/15 08:26:40;;;;;;;12.40;10.67;;;9.80;99.90;;;;;;5050149;28;20352;-66
2022/03/15 08:29:06;;;;;;;12.03;10.70;;;9.80;99.90;;;;;;5051598;28;20429;-66
2022/03/15 08:31:32;;;;;;;12.83;10.40;;;9.70;99.90;;;;;;5051668;28;20517;-66
2022/03/15 08:33:57;;;;;;;14.30;11.07;;;9.80;99.90;;;;;;5052304;28;20503;-66
2022/03/15 08:36:23;;;;;;;15.17;11.43;;;9.90;99.90;;;;;;5050596;28;20211;-65
2022/03/15 08:38:50;;;;;;;16.93;13.83;;;10.00;99.90;;;;;;5052616;28;20206;-66
2022/03/15 08:41:16;;;;;;;17.40;13.73;;;10.00;99.90;;;;;;5052197;28;20805;-66
2022/03/15 08:43:42;;;;;;;16.43;12.70;;;10.10;99.90;;;;;;5051718;28;20418;-65
2022/03/15 08:46:08;;;;;;;29.73;13.30;;;10.10;99.90;;;;;;5051999;28;20461;-71
2022/03/15 08:48:34;;;;;;;19.37;14.10;;;10.20;99.90;;;;;;5050371;28;20487;-71
2022/03/15 08:51:00;;;;;;;17.33;12.80;;;10.10;99.90;;;;;;5051429;28;20446;-71
2022/03/15 08:53:27;;;;;;;15.80;13.40;;;10.20;99.90;;;;;;5051669;28;20419;-71
2022/03/15 08:55:53;;;;;;;15.77;12.17;;;10.30;99.90;;;;;;5052070;28;20509;-71
2022/03/15 08:58:19;;;;;;;19.43;11.80;;;10.30;99.90;;;;;;5050703;28;21047;-71
2022/03/15 09:00:45;;;;;;;12.47;10.73;;;10.40;99.90;;;;;;5050870;28;20794;-71
2022/03/15 09:03:10;;;;;;;12.00;10.90;;;10.50;99.90;;;;;;5052536;28;20185;-71
2022/03/15 09:05:36;;;;;;;12.27;10.30;;;10.50;99.90;;;;;;5054083;28;20648;-71
2022/03/15 09:08:02;;;;;;;16.67;10.33;;;10.50;99.90;;;;;;5055235;28;20419;-71
2022/03/15 09:10:28;;;;;;;13.80;11.80;;;10.50;99.90;;;;;;5054216;28;20184;-72
2022/03/15 09:12:53;;;;;;;12.50;11.17;;;10.50;99.90;;;;;;5054977;28;20185;-72
2022/03/15 09:15:22;;;;;;;12.10;10.20;;;10.50;99.90;;;;;;5055357;28;20183;-71
2022/03/15 09:17:48;;;;;;;12.67;10.40;;;10.40;99.90;;;;;;5055233;28;20268;-72
2022/03/15 09:20:15;;;;;;;13.67;11.70;;;10.40;99.90;;;;;;5066688;28;21021;-71
2022/03/15 09:22:41;;;;;;;12.87;10.50;;;10.50;99.90;;;;;;5067676;28;20781;-72
2022/03/15 09:25:08;;;;;;;13.67;10.77;;;10.60;99.90;;;;;;5056234;28;20418;-72
2022/03/15 09:27:34;;;;;;;15.10;10.93;;;10.70;99.90;;;;;;5065368;28;20936;-72
2022/03/15 09:30:00;;;;;;;12.47;11.30;;;10.70;99.90;;;;;;5055256;28;20411;-71
2022/03/15 09:32:27;;;;;;;10.63;9.50;;;10.80;99.90;;;;;;5054793;28;20420;-71
2022/03/15 09:34:55;;;;;;;14.63;11.10;;;10.90;99.90;;;;;;5054241;28;20412;-71
2022/03/15 09:37:21;;;;;;;21.40;12.33;;;10.90;99.90;;;;;;5055229;28;20414;-71
2022/03/15 09:39:47;;;;;;;18.43;11.10;;;10.90;99.90;;;;;;5055323;28;20463;-71
2022/03/15 09:42:17;;;;;;;19.67;11.90;;;11.00;99.90;;;;;;5055293;28;20437;-71
2022/03/15 09:44:43;;;;;;;15.20;13.23;;;11.00;99.90;;;;;;5054686;28;20312;-72
2022/03/15 09:47:09;;;;;;;19.63;12.73;;;11.10;99.90;;;;;;5053996;28;20506;-72
2022/03/15 09:49:36;;;;;;;22.37;14.20;;;11.20;99.90;;;;;;5054630;28;20657;-72
2022/03/15 09:52:04;;;;;;;17.37;12.90;;;11.20;99.90;;;;;;5054853;28;20426;-71
2022/03/15 09:54:30;;;;;;;13.40;11.37;;;11.30;99.90;;;;;;5052882;28;20791;-72
2022/03/15 09:56:57;;;;;;;14.00;9.90;;;11.30;99.90;;;;;;5059022;28;20425;-70
2022/03/15 09:59:26;;;;;;;12.00;10.80;;;11.30;99.90;;;;;;5054822;28;20742;-71
2022/03/15 10:01:54;;;;;;;11.00;9.90;;;11.20;99.40;;;;;;5054031;28;20987;-71
2022/03/15 10:04:22;;;;;;;11.83;9.70;;;11.20;99.70;;;;;;5053856;28;20420;-71
2022/03/15 10:06:48;;;;;;;13.57;8.10;;;11.30;99.60;;;;;;5052443;28;20456;-71
2022/03/15 10:09:15;;;;;;;16.37;9.13;;;11.30;99.60;;;;;;5054409;28;20900;-71
2022/03/15 10:11:42;;;;;;;11.07;9.93;;;11.30;99.50;;;;;;5054068;28;20419;-72
2022/03/15 10:14:08;;;;;;;10.43;9.40;;;11.40;99.70;;;;;;5052976;28;20411;-71
2022/03/15 10:16:40;;;;;;;11.27;9.90;;;11.40;99.80;;;;;;5052553;28;20782;-72
2022/03/15 10:19:10;;;;;;;14.13;10.13;;;11.50;99.50;;;;;;5054110;28;20498;-71
2022/03/15 10:21:48;;;;;;;10.33;8.77;;;11.60;99.90;;;;;;5052300;28;20469;-71
2022/03/15 10:24:26;;;;;;;10.53;9.40;;;11.60;99.90;;;;;;5041694;28;20456;-71
2022/03/15 10:26:54;;;;;;;12.03;8.87;;;11.70;99.60;;;;;;5034519;28;20972;-71
2022/03/15 10:29:22;;;;;;;15.50;10.70;;;11.80;99.90;;;;;;5048964;28;20455;-71
2022/03/15 10:31:48;;;;;;;12.53;11.23;;;11.90;99.90;;;;;;5053726;28;20416;-71
2022/03/15 10:34:16;;;;;;;17.40;9.93;;;11.90;99.90;;;;;;5052960;28;20436;-71
2022/03/15 10:36:47;;;;;;;9.43;8.43;;;12.00;99.90;;;;;;5052375;28;20432;-71
2022/03/15 10:39:15;;;;;;;11.10;9.00;;;12.10;99.70;;;;;;5053253;28;20510;-71
2022/03/15 10:41:52;;;;;;;10.47;9.13;;;12.10;98.60;;;;;;5051463;28;20453;-71
2022/03/15 10:44:25;;;;;;;12.03;10.97;;;12.20;98.10;;;;;;5052668;28;20954;-72
2022/03/15 10:47:18;;;;;;;10.83;8.97;;;12.20;98.00;;;;;;5058140;28;20415;-71
2022/03/15 10:49:54;;;;;;;11.30;8.57;;;12.20;97.60;;;;;;5050625;28;20441;-71
2022/03/15 10:52:35;;;;;;;10.33;9.10;;;12.10;98.00;;;;;;5052021;28;20414;-71
2022/03/15 10:55:18;;;;;;;10.53;8.40;;;12.10;98.30;;;;;;5051787;28;20834;-71
2022/03/15 10:57:45;;;;;;;10.63;9.53;;;12.20;98.40;;;;;;5051442;28;20413;-71
2022/03/15 11:00:12;;;;;;;9.83;8.87;;;12.30;98.50;;;;;;5053531;28;20460;-71
2022/03/15 11:02:48;;;;;;;9.60;8.27;;;12.40;98.60;;;;;;5052419;28;20481;-71
2022/03/15 11:05:27;;;;;;;9.33;8.33;;;12.40;97.40;;;;;;5063699;28;20415;-71
2022/03/15 11:07:53;;;;;;;9.93;8.30;;;12.50;96.70;;;;;;5051611;28;20420;-71
2022/03/15 11:10:18;;;;;;;9.33;8.43;;;12.50;96.80;;;;;;5050362;28;20795;-71
2022/03/15 11:12:59;;;;;;;10.40;9.30;;;12.70;99.00;;;;;;5050333;28;20426;-71
2022/03/15 11:15:28;;;;;;;9.40;8.13;;;13.00;96.70;;;;;;5043990;28;20202;-71
2022/03/15 11:18:02;;;;;;;9.30;7.33;;;13.00;96.10;;;;;;5051641;28;20505;-71
2022/03/15 11:20:31;;;;;;;10.87;8.60;;;13.00;95.10;;;;;;5050963;28;20477;-71
2022/03/15 11:23:00;;;;;;;9.13;6.90;;;13.10;95.30;;;;;;5040995;28;20483;-71
2022/03/15 11:25:33;;;;;;;9.80;7.30;;;13.10;94.90;;;;;;5055046;28;20459;-71
2022/03/15 11:28:00;;;;;;;9.00;6.83;;;13.10;94.80;;;;;;5041292;28;20459;-71
2022/03/15 11:30:27;;;;;;;7.50;6.60;;;13.10;95.70;;;;;;5050508;28;20441;-71
2022/03/15 11:32:55;;;;;;;10.23;8.20;;;13.10;95.60;;;;;;5048098;28;20418;-71
2022/03/15 11:35:23;;;;;;;7.60;6.93;;;13.20;95.90;;;;;;5050425;28;20436;-71
2022/03/15 11:37:50;;;;;;;10.40;9.30;;;13.10;95.50;;;;;;5052185;28;20532;-71
2022/03/15 11:40:18;;;;;;;10.83;9.83;;;13.10;95.60;;;;;;5053102;28;20523;-71
2022/03/15 11:42:51;;;;;;;11.33;7.60;;;13.10;94.50;;;;;;5052208;28;20409;-71
2022/03/15 11:45:36;;;;;;;7.60;6.80;;;13.20;95.10;;;;;;5052922;28;20422;-71
2022/03/15 11:48:01;;;;;;;8.53;7.20;;;13.20;95.40;;;;;;5052775;28;20907;-71
2022/03/15 11:50:39;;;;;;;8.80;7.67;;;13.20;94.60;;;;;;5052852;28;20434;-71
2022/03/15 11:53:29;;;;;;;9.83;9.07;;;13.20;94.80;;;;;;5052758;28;20264;-71
2022/03/15 11:56:33;;;;;;;7.57;6.87;;;13.20;95.10;;;;;;5053169;28;20497;-71
2022/03/15 11:59:00;;;;;;;8.10;7.30;;;13.20;94.90;;;;;;5052745;28;20414;-70
2022/03/15 12:01:28;;;;;;;10.00;9.20;;;13.20;94.70;;;;;;5052265;28;20862;-70
2022/03/15 12:03:57;;;;;;;7.93;7.23;;;13.20;94.40;;;;;;5051539;28;20987;-70
2022/03/15 12:06:26;;;;;;;9.80;7.90;;;13.30;94.40;;;;;;5052453;28;20398;-71
2022/03/15 12:08:57;;;;;;;6.03;5.50;;;13.30;94.20;;;;;;5050894;28;20415;-71
2022/03/15 12:11:42;;;;;;;8.17;5.50;;;13.30;93.80;;;;;;5052806;28;20443;-70
2022/03/15 12:14:19;;;;;;;7.57;6.87;;;13.30;94.20;;;;;;5052763;28;20402;-70
2022/03/15 12:16:50;;;;;;;10.10;5.37;;;13.40;94.00;;;;;;5052040;28;20749;-70
2022/03/15 12:19:35;;;;;;;7.30;5.67;;;13.30;93.20;;;;;;5052541;28;20395;-71
2022/03/15 12:22:08;;;;;;;6.20;5.60;;;13.30;93.50;;;;;;5052698;28;20461;-70
2022/03/15 12:24:36;;;;;;;5.60;5.20;;;13.30;93.50;;;;;;5052110;28;20895;-71
2022/03/15 12:27:07;;;;;;;5.90;5.50;;;13.30;93.30;;;;;;5051171;28;20411;-70
2022/03/15 12:29:36;;;;;;;5.80;5.00;;;13.30;93.40;;;;;;5051861;28;20405;-71
2022/03/15 12:32:19;;;;;;;6.80;6.17;;;13.30;92.20;;;;;;5052442;28;20501;-70
2022/03/15 12:34:51;;;;;;;6.30;5.00;;;13.20;93.00;;;;;;5050570;28;20407;-71
2022/03/15 12:37:37;;;;;;;5.00;4.60;;;13.20;93.00;;;;;;5054140;28;20891;-70
2022/03/15 12:40:09;;;;;;;6.90;4.57;;;13.20;92.50;;;;;;5055313;28;20770;-71